Time;durP1;ratioP1;P1;durP2;ratioP2;P2;SDS_P1;SDS_P2;PMS_P1;PMS_P2;Temp;Humidity;BMP_temperature;BMP_pressure;BME280_temperature;BME280_humidity;BME280_pressure;Samples;Min_cycle;Max_cycle;Signal;HPM_P1;HPM_P2
2022/10/26 00:01:16;;;;;;;6.37;3.60;;;8.50;99.90;;;;;;5095829;28;20958;-78
2022/10/26 00:03:45;;;;;;;5.33;3.10;;;8.40;99.90;;;;;;5088000;28;20518;-77
2022/10/26 00:06:14;;;;;;;8.30;3.63;;;8.30;99.90;;;;;;5096572;28;20458;-77
2022/10/26 00:08:41;;;;;;;2.90;2.70;;;8.20;99.90;;;;;;5090268;28;20553;-77
2022/10/26 00:11:10;;;;;;;8.57;3.50;;;8.10;99.90;;;;;;5093574;28;20517;-78
2022/10/26 00:13:38;;;;;;;2.60;2.33;;;8.10;99.90;;;;;;5092602;28;20502;-77
2022/10/26 00:16:08;;;;;;;4.30;3.43;;;8.00;99.90;;;;;;5096886;28;20562;-78
2022/10/26 00:18:35;;;;;;;3.47;2.43;;;8.00;99.90;;;;;;5094841;28;20494;-77
2022/10/26 00:21:04;;;;;;;7.80;3.27;;;8.00;99.90;;;;;;5096020;28;20898;-77
2022/10/26 00:23:31;;;;;;;3.30;2.03;;;8.00;99.90;;;;;;5086665;28;20548;-78
2022/10/26 00:25:58;;;;;;;11.93;2.20;;;8.00;99.90;;;;;;5085870;28;20464;-77
2022/10/26 00:28:28;;;;;;;3.97;2.50;;;8.00;99.90;;;;;;5097954;28;21020;-77
2022/10/26 00:30:55;;;;;;;2.50;2.00;;;8.00;99.90;;;;;;5092074;28;21205;-77
2022/10/26 00:33:21;;;;;;;4.67;2.10;;;7.90;99.90;;;;;;5095385;28;20467;-78
2022/10/26 00:35:48;;;;;;;3.67;2.00;;;7.90;99.90;;;;;;5090696;28;20466;-77
2022/10/26 00:38:15;;;;;;;2.30;1.60;;;7.90;99.90;;;;;;5089991;28;20458;-77
2022/10/26 00:40:43;;;;;;;3.33;2.83;;;7.80;99.90;;;;;;5099589;28;20498;-77
2022/10/26 00:43:16;;;;;;;5.57;4.50;;;7.90;99.90;;;;;;5094524;28;20451;-76
2022/10/26 00:45:45;;;;;;;7.07;3.70;;;7.90;99.90;;;;;;5097721;28;20808;-76
2022/10/26 00:48:19;;;;;;;21.33;6.20;;;7.90;99.90;;;;;;5097040;28;20463;-77
2022/10/26 00:50:48;;;;;;;58.00;8.80;;;7.90;99.90;;;;;;5090090;28;20548;-77
2022/10/26 00:53:16;;;;;;;23.23;7.00;;;7.90;99.90;;;;;;5097019;28;20471;-77
2022/10/26 00:55:47;;;;;;;82.83;14.97;;;7.90;99.90;;;;;;5098995;27;20590;-77
2022/10/26 00:58:14;;;;;;;10.13;5.30;;;7.80;99.90;;;;;;5096715;27;20519;-77
2022/10/26 01:00:42;;;;;;;10.77;4.60;;;7.80;99.90;;;;;;5091806;28;20515;-77
2022/10/26 01:03:11;;;;;;;37.43;9.30;;;7.70;99.90;;;;;;5097091;28;20472;-77
2022/10/26 01:05:40;;;;;;;42.17;9.23;;;7.60;99.90;;;;;;5096123;28;20543;-76
2022/10/26 01:08:08;;;;;;;4.20;3.50;;;7.50;99.90;;;;;;5105966;28;20920;-77
2022/10/26 01:10:37;;;;;;;6.23;3.30;;;7.40;99.90;;;;;;5094945;27;20490;-77
2022/10/26 01:13:06;;;;;;;3.33;3.13;;;7.30;99.90;;;;;;5103883;28;20469;-77
2022/10/26 01:15:43;;;;;;;3.63;3.30;;;7.30;99.90;;;;;;5089739;28;20479;-77
2022/10/26 01:18:20;;;;;;;3.33;3.03;;;7.40;99.90;;;;;;5099074;27;20465;-77
2022/10/26 01:21:11;;;;;;;6.13;3.73;;;7.50;99.90;;;;;;5093641;28;20547;-77
2022/10/26 01:23:50;;;;;;;5.33;4.83;;;7.60;99.90;;;;;;5097615;28;20497;-77
2022/10/26 01:26:52;;;;;;;5.90;5.17;;;7.70;99.90;;;;;;5092595;28;20511;-77
2022/10/26 01:30:10;;;;;;;4.80;4.50;;;7.80;99.90;;;;;;5100674;28;21037;-77
2022/10/26 01:32:43;;;;;;;5.17;4.03;;;7.90;99.90;;;;;;5089422;28;20483;-77
2022/10/26 01:35:14;;;;;;;6.80;5.90;;;7.90;99.90;;;;;;5096731;28;20534;-77
2022/10/26 01:37:46;;;;;;;5.37;4.40;;;8.00;99.90;;;;;;5097367;28;20542;-77
2022/10/26 01:40:20;;;;;;;6.30;5.40;;;8.00;99.90;;;;;;5100291;28;20481;-77
2022/10/26 01:42:51;;;;;;;5.63;5.13;;;8.00;99.90;;;;;;5098329;28;20527;-77
2022/10/26 01:45:18;;;;;;;4.70;4.30;;;8.00;99.90;;;;;;5091075;27;20486;-77
2022/10/26 01:47:48;;;;;;;5.77;3.87;;;7.90;99.90;;;;;;5092485;28;20466;-77
2022/10/26 01:50:16;;;;;;;4.97;3.00;;;7.80;99.90;;;;;;5091344;28;20861;-77
2022/10/26 01:52:43;;;;;;;4.20;3.80;;;7.60;99.90;;;;;;5084747;28;20524;-77
2022/10/26 01:55:43;;;;;;;4.63;4.20;;;7.60;99.90;;;;;;5094668;28;20597;-77
2022/10/26 01:58:32;;;;;;;4.63;3.63;;;7.40;99.90;;;;;;5093162;28;20490;-77
2022/10/26 02:01:08;;;;;;;5.03;4.53;;;7.30;99.90;;;;;;5099828;27;20458;-77
2022/10/26 02:03:45;;;;;;;4.20;3.73;;;7.20;99.90;;;;;;5088511;27;20514;-77
2022/10/26 02:06:19;;;;;;;3.77;3.50;;;7.20;99.90;;;;;;5088957;28;20810;-77
2022/10/26 02:09:03;;;;;;;4.80;3.67;;;7.20;99.90;;;;;;5090172;28;20539;-77
2022/10/26 02:11:39;;;;;;;9.53;5.37;;;7.30;99.90;;;;;;5101575;27;20945;-77
2022/10/26 02:14:16;;;;;;;6.40;5.80;;;7.30;99.90;;;;;;5085752;28;20458;-77
2022/10/26 02:16:53;;;;;;;6.20;5.20;;;7.40;99.90;;;;;;5086150;28;20458;-77
2022/10/26 02:19:32;;;;;;;11.57;6.47;;;7.40;99.90;;;;;;5091036;27;20462;-77
2022/10/26 02:22:05;;;;;;;23.43;7.57;;;7.40;99.90;;;;;;5095566;28;20450;-77
2022/10/26 02:24:34;;;;;;;58.83;14.50;;;7.60;99.90;;;;;;5090230;27;20528;-77
2022/10/26 02:27:03;;;;;;;49.53;12.63;;;7.60;99.90;;;;;;5099801;27;20546;-77
2022/10/26 02:29:33;;;;;;;42.70;9.53;;;7.70;99.90;;;;;;5090435;28;20527;-76
2022/10/26 02:32:02;;;;;;;138.13;23.10;;;7.70;99.90;;;;;;5091406;28;20534;-77
2022/10/26 02:34:32;;;;;;;79.43;11.10;;;7.70;99.90;;;;;;5091725;28;20540;-77
2022/10/26 02:37:02;;;;;;;28.67;6.40;;;7.80;99.90;;;;;;5091215;28;20542;-77
2022/10/26 02:39:32;;;;;;;31.33;8.23;;;7.80;99.90;;;;;;5090630;28;20454;-77
2022/10/26 02:42:03;;;;;;;28.07;6.23;;;7.80;99.90;;;;;;5093994;28;20468;-76
2022/10/26 02:44:36;;;;;;;17.53;8.57;;;7.80;99.90;;;;;;5091787;27;20537;-77
2022/10/26 02:47:03;;;;;;;5.97;4.17;;;7.80;99.90;;;;;;5089936;28;20966;-77
2022/10/26 02:49:32;;;;;;;16.43;6.00;;;7.80;99.90;;;;;;5095878;28;20461;-77
2022/10/26 02:52:05;;;;;;;47.17;11.30;;;7.80;99.90;;;;;;5096716;28;20486;-77
2022/10/26 02:54:39;;;;;;;45.63;9.57;;;7.80;99.90;;;;;;5093756;28;20499;-77
2022/10/26 02:57:11;;;;;;;30.87;6.50;;;7.80;99.90;;;;;;5091722;28;20466;-77
2022/10/26 02:59:42;;;;;;;21.63;7.10;;;7.70;99.90;;;;;;5092504;28;20515;-77
2022/10/26 03:02:09;;;;;;;26.63;9.90;;;7.70;99.90;;;;;;5096612;27;20462;-77
2022/10/26 03:04:37;;;;;;;36.67;6.47;;;7.80;99.90;;;;;;5097461;28;20457;-77
2022/10/26 03:07:04;;;;;;;26.90;7.23;;;7.80;99.90;;;;;;5086811;28;20478;-77
2022/10/26 03:09:31;;;;;;;46.53;12.30;;;7.80;99.90;;;;;;5092195;27;21006;-77
2022/10/26 03:11:59;;;;;;;15.20;6.23;;;7.90;99.90;;;;;;5093737;27;20489;-77
2022/10/26 03:14:26;;;;;;;13.43;6.47;;;8.00;99.90;;;;;;5096151;28;20543;-77
2022/10/26 03:16:53;;;;;;;18.80;6.13;;;8.00;99.90;;;;;;5088671;28;20462;-77
2022/10/26 03:19:20;;;;;;;12.33;6.10;;;8.00;99.90;;;;;;5092435;27;20630;-77
2022/10/26 03:21:48;;;;;;;5.07;4.67;;;8.10;99.90;;;;;;5084945;28;20501;-77
2022/10/26 03:24:15;;;;;;;5.53;4.77;;;8.10;99.90;;;;;;5092154;28;20459;-77
2022/10/26 03:26:42;;;;;;;7.60;6.17;;;8.10;99.90;;;;;;5095023;27;20481;-77
2022/10/26 03:29:09;;;;;;;6.60;5.27;;;8.10;99.90;;;;;;5087501;28;21175;-77
2022/10/26 03:31:36;;;;;;;6.40;5.67;;;8.10;99.90;;;;;;5084961;28;20544;-77
2022/10/26 03:34:03;;;;;;;4.13;3.73;;;8.00;99.90;;;;;;5092096;28;20471;-77
2022/10/26 03:36:29;;;;;;;31.30;6.70;;;8.10;99.90;;;;;;5097709;28;20531;-77
2022/10/26 03:38:58;;;;;;;38.97;7.30;;;8.00;99.90;;;;;;5090825;28;20531;-77
2022/10/26 03:41:25;;;;;;;32.93;6.97;;;7.80;99.90;;;;;;5095328;28;20462;-77
2022/10/26 03:43:52;;;;;;;17.40;6.40;;;7.80;99.90;;;;;;5092001;28;20497;-76
2022/10/26 03:46:19;;;;;;;19.00;5.90;;;7.90;99.90;;;;;;5093998;28;21216;-77
2022/10/26 03:48:46;;;;;;;28.87;6.07;;;7.80;99.90;;;;;;5090064;28;20554;-77
2022/10/26 03:51:13;;;;;;;13.57;5.80;;;7.80;99.90;;;;;;5086916;28;20521;-77
2022/10/26 03:53:40;;;;;;;26.10;7.00;;;7.80;99.90;;;;;;5085026;28;20619;-77
2022/10/26 03:56:08;;;;;;;20.03;7.37;;;7.80;99.90;;;;;;5092965;28;20841;-77
2022/10/26 03:58:36;;;;;;;11.33;7.07;;;7.90;99.90;;;;;;5098274;28;20502;-77
2022/10/26 04:01:03;;;;;;;6.27;5.67;;;7.90;99.90;;;;;;5092226;28;20980;-77
2022/10/26 04:03:30;;;;;;;13.00;8.10;;;8.10;99.90;;;;;;5099195;28;20463;-77
2022/10/26 04:05:59;;;;;;;28.23;7.50;;;8.00;99.90;;;;;;5089950;28;20505;-77
2022/10/26 04:08:26;;;;;;;59.70;15.90;;;8.00;99.90;;;;;;5091536;28;20520;-76
2022/10/26 04:10:53;;;;;;;10.87;8.50;;;8.00;99.90;;;;;;5094453;27;20511;-76
2022/10/26 04:13:22;;;;;;;8.90;7.97;;;8.00;99.90;;;;;;5096657;28;20485;-77
2022/10/26 04:15:49;;;;;;;8.57;7.70;;;8.10;99.90;;;;;;5086955;28;20487;-76
2022/10/26 04:18:16;;;;;;;263.70;44.43;;;8.20;99.90;;;;;;5093139;28;20511;-76
2022/10/26 04:20:43;;;;;;;58.73;15.93;;;8.10;99.90;;;;;;5091683;28;20454;-77
2022/10/26 04:23:13;;;;;;;67.20;17.53;;;8.00;99.90;;;;;;5093678;28;20435;-77
2022/10/26 04:25:40;;;;;;;8.73;6.20;;;8.00;99.90;;;;;;5094466;27;20494;-77
2022/10/26 04:28:09;;;;;;;6.80;5.90;;;8.00;99.90;;;;;;5097252;28;20514;-77
2022/10/26 04:30:38;;;;;;;7.07;6.37;;;8.20;99.90;;;;;;5094455;28;20465;-77
2022/10/26 04:33:06;;;;;;;11.23;7.50;;;8.20;99.90;;;;;;5088194;28;20953;-77
2022/10/26 04:35:33;;;;;;;13.70;7.80;;;8.30;99.90;;;;;;5084362;28;20495;-77
2022/10/26 04:38:01;;;;;;;14.97;8.60;;;8.40;99.90;;;;;;5083571;28;20462;-77
2022/10/26 04:40:28;;;;;;;8.97;7.37;;;8.40;99.90;;;;;;5095250;28;20581;-77
2022/10/26 04:42:55;;;;;;;54.77;11.43;;;8.30;99.90;;;;;;5093793;27;20462;-77
2022/10/26 04:45:22;;;;;;;21.40;9.07;;;8.10;99.90;;;;;;5086149;28;20491;-77
2022/10/26 04:47:59;;;;;;;6.60;6.00;;;8.10;99.90;;;;;;5091664;28;21007;-77
2022/10/26 04:50:26;;;;;;;5.53;4.20;;;8.10;99.90;;;;;;5087378;28;20489;-77
2022/10/26 04:52:53;;;;;;;5.70;5.10;;;8.20;99.90;;;;;;5089833;28;20581;-78
2022/10/26 04:55:20;;;;;;;8.30;5.40;;;8.30;99.90;;;;;;5089532;28;20482;-78
2022/10/26 04:57:47;;;;;;;8.80;5.53;;;8.30;99.90;;;;;;5084092;28;20553;-77
2022/10/26 05:00:14;;;;;;;8.20;4.10;;;8.30;99.90;;;;;;5089870;28;20998;-78
2022/10/26 05:02:41;;;;;;;7.77;4.97;;;8.30;99.90;;;;;;5090318;28;20458;-77
2022/10/26 05:05:10;;;;;;;6.53;5.90;;;8.40;99.90;;;;;;5089761;28;20459;-78
2022/10/26 05:07:37;;;;;;;6.03;5.53;;;8.40;99.90;;;;;;5092301;28;20462;-78
2022/10/26 05:10:05;;;;;;;5.90;5.40;;;8.30;99.90;;;;;;5088715;28;20458;-77
2022/10/26 05:12:32;;;;;;;9.43;4.27;;;8.40;99.90;;;;;;5086883;28;20490;-77
2022/10/26 05:14:59;;;;;;;4.60;4.23;;;8.50;99.90;;;;;;5091297;28;20602;-77
2022/10/26 05:17:26;;;;;;;5.43;4.87;;;8.50;99.90;;;;;;5090250;28;20525;-79
2022/10/26 05:19:56;;;;;;;7.63;4.30;;;8.40;99.90;;;;;;5085840;28;20542;-79
2022/10/26 05:22:25;;;;;;;6.57;5.10;;;8.40;99.90;;;;;;5092214;28;20455;-78
2022/10/26 05:24:52;;;;;;;11.00;5.00;;;8.40;99.90;;;;;;5100824;27;20461;-79
2022/10/26 05:27:19;;;;;;;12.67;7.27;;;8.30;99.90;;;;;;5100501;27;20837;-79
2022/10/26 05:29:46;;;;;;;8.07;6.60;;;8.30;99.90;;;;;;5098885;28;20475;-79
2022/10/26 05:32:13;;;;;;;14.80;10.57;;;8.30;99.90;;;;;;5094117;27;21102;-79
2022/10/26 05:34:40;;;;;;;16.53;10.80;;;8.30;99.90;;;;;;5092409;28;20458;-78
2022/10/26 05:37:07;;;;;;;15.33;10.50;;;8.30;99.90;;;;;;5104970;28;20513;-79
2022/10/26 05:39:35;;;;;;;13.20;9.50;;;8.40;99.90;;;;;;5091136;27;20571;-79
2022/10/26 05:42:02;;;;;;;8.67;7.60;;;8.40;99.90;;;;;;5089995;28;20454;-78
2022/10/26 05:44:29;;;;;;;6.63;5.63;;;8.40;99.90;;;;;;5092671;28;20991;-79
2022/10/26 05:46:56;;;;;;;7.33;6.60;;;8.40;99.90;;;;;;5094851;27;20541;-79
2022/10/26 05:49:23;;;;;;;9.17;7.37;;;8.40;99.90;;;;;;5097115;27;20462;-78
2022/10/26 05:51:50;;;;;;;9.93;8.93;;;8.50;99.90;;;;;;5092322;28;20885;-78
2022/10/26 05:54:17;;;;;;;9.17;8.30;;;8.50;99.90;;;;;;5096704;28;20466;-79
2022/10/26 05:56:46;;;;;;;10.53;9.60;;;8.70;99.90;;;;;;5106188;28;20782;-79
2022/10/26 05:59:15;;;;;;;28.97;11.07;;;8.50;99.90;;;;;;5100980;28;20462;-79
2022/10/26 06:02:01;;;;;;;46.17;14.20;;;8.50;99.90;;;;;;5089910;28;20458;-79
2022/10/26 06:04:37;;;;;;;76.07;20.20;;;8.40;99.90;;;;;;5088218;28;21187;-78
2022/10/26 06:07:10;;;;;;;123.23;26.83;;;8.40;99.90;;;;;;5093521;28;20462;-79
2022/10/26 06:09:38;;;;;;;100.70;24.73;;;8.40;99.90;;;;;;5099936;27;20458;-79
2022/10/26 06:12:07;;;;;;;88.43;20.13;;;8.40;99.90;;;;;;5090812;27;20526;-78
2022/10/26 06:14:35;;;;;;;33.17;11.63;;;8.40;99.90;;;;;;5097847;27;20466;-78
2022/10/26 06:17:17;;;;;;;12.63;8.97;;;8.50;99.90;;;;;;5088007;28;20454;-79
2022/10/26 06:19:57;;;;;;;8.43;7.53;;;8.50;99.90;;;;;;5089781;28;20462;-79
2022/10/26 06:22:39;;;;;;;7.87;7.00;;;8.70;99.90;;;;;;5083908;28;20458;-79
2022/10/26 06:25:18;;;;;;;9.47;7.60;;;8.70;99.90;;;;;;5087420;28;20594;-79
2022/10/26 06:27:55;;;;;;;9.37;8.37;;;8.70;99.90;;;;;;5082522;27;21052;-79
2022/10/26 06:30:22;;;;;;;7.37;6.67;;;8.60;99.90;;;;;;5087852;28;20458;-79
2022/10/26 06:32:52;;;;;;;7.47;6.87;;;8.50;99.90;;;;;;5088332;28;20483;-79
2022/10/26 06:35:32;;;;;;;7.60;7.00;;;8.60;99.90;;;;;;5089051;28;20461;-79
2022/10/26 06:38:03;;;;;;;8.70;8.00;;;8.70;99.90;;;;;;5087292;28;20543;-79
2022/10/26 06:40:32;;;;;;;20.00;14.70;;;8.80;99.90;;;;;;5087702;28;21118;-79
2022/10/26 06:43:02;;;;;;;9.90;8.23;;;8.80;99.90;;;;;;5080843;27;20494;-79
2022/10/26 06:45:29;;;;;;;8.20;7.50;;;8.80;99.90;;;;;;5084001;28;20462;-79
2022/10/26 06:48:05;;;;;;;8.90;8.10;;;8.90;99.90;;;;;;5082756;28;20535;-79
2022/10/26 06:50:37;;;;;;;8.83;7.83;;;8.80;99.90;;;;;;5083899;28;20481;-79
2022/10/26 06:53:12;;;;;;;10.20;9.10;;;8.90;99.90;;;;;;5093296;27;20482;-79
2022/10/26 06:55:42;;;;;;;9.70;8.77;;;8.90;99.90;;;;;;5093423;28;20515;-79
2022/10/26 06:58:15;;;;;;;9.57;8.60;;;9.00;99.90;;;;;;5092041;28;20462;-79
2022/10/26 07:00:45;;;;;;;12.10;10.60;;;8.90;99.90;;;;;;5088011;28;20471;-79
2022/10/26 07:03:12;;;;;;;9.20;8.30;;;9.00;99.90;;;;;;5089304;28;20461;-79
2022/10/26 07:05:38;;;;;;;9.63;8.73;;;9.10;99.90;;;;;;5088601;28;20453;-79
2022/10/26 07:08:06;;;;;;;13.00;10.30;;;9.10;99.90;;;;;;5082683;27;20467;-79
2022/10/26 07:10:33;;;;;;;16.13;9.30;;;9.10;99.90;;;;;;5085053;27;20943;-79
2022/10/26 07:13:00;;;;;;;8.80;7.80;;;9.10;99.90;;;;;;5084886;28;20485;-80
2022/10/26 07:15:29;;;;;;;12.00;10.80;;;9.10;99.90;;;;;;5081246;28;20949;-79
2022/10/26 07:17:56;;;;;;;10.13;8.70;;;9.10;99.90;;;;;;5082477;28;20926;-79
2022/10/26 07:20:23;;;;;;;8.80;7.83;;;9.20;99.90;;;;;;5087070;27;20451;-79
2022/10/26 07:22:53;;;;;;;10.27;9.13;;;9.20;99.90;;;;;;5088042;28;20458;-79
2022/10/26 07:25:21;;;;;;;10.30;9.20;;;9.30;99.90;;;;;;5085660;28;20535;-79
2022/10/26 07:27:48;;;;;;;12.50;11.40;;;9.50;99.90;;;;;;5080893;28;20583;-79
2022/10/26 07:30:15;;;;;;;8.97;8.17;;;9.60;99.90;;;;;;5082459;28;20458;-79
2022/10/26 07:32:44;;;;;;;11.13;10.00;;;9.80;99.90;;;;;;5079760;28;20514;-78
2022/10/26 07:35:12;;;;;;;12.93;10.87;;;9.90;99.90;;;;;;5086303;28;20469;-78
2022/10/26 07:37:39;;;;;;;10.93;10.00;;;10.10;99.90;;;;;;5083281;28;21443;-78
2022/10/26 07:40:07;;;;;;;9.97;8.30;;;10.30;99.90;;;;;;5082593;28;20455;-78
2022/10/26 07:42:35;;;;;;;11.87;10.73;;;10.30;99.90;;;;;;5078136;27;20483;-78
2022/10/26 07:45:03;;;;;;;13.43;10.63;;;10.40;99.90;;;;;;5083542;28;20458;-78
2022/10/26 07:47:30;;;;;;;9.80;8.90;;;10.40;99.90;;;;;;5093165;27;20471;-79
2022/10/26 07:49:58;;;;;;;10.03;9.10;;;10.60;99.90;;;;;;5079992;28;20575;-78
2022/10/26 07:52:25;;;;;;;8.87;8.07;;;10.60;99.90;;;;;;5090926;28;20588;-78
2022/10/26 07:54:52;;;;;;;8.30;7.50;;;10.40;99.90;;;;;;5079689;28;20870;-78
2022/10/26 07:57:19;;;;;;;7.53;7.03;;;10.30;99.90;;;;;;5089862;28;20466;-78
2022/10/26 07:59:46;;;;;;;6.63;6.03;;;10.10;99.90;;;;;;5092940;28;21131;-79
2022/10/26 08:02:13;;;;;;;8.17;7.50;;;10.10;99.90;;;;;;5081639;28;20516;-78
2022/10/26 08:04:40;;;;;;;8.03;7.40;;;10.10;99.90;;;;;;5088907;28;20463;-78
2022/10/26 08:07:08;;;;;;;7.80;7.30;;;10.10;99.90;;;;;;5085994;28;21170;-78
2022/10/26 08:09:35;;;;;;;9.00;8.20;;;10.20;99.90;;;;;;5088804;28;20495;-78
2022/10/26 08:12:02;;;;;;;7.80;7.20;;;10.40;99.90;;;;;;5083064;28;20544;-78
2022/10/26 08:14:29;;;;;;;9.07;8.27;;;10.50;99.90;;;;;;5088161;28;20509;-78
2022/10/26 08:16:56;;;;;;;10.63;9.70;;;10.50;99.90;;;;;;5090583;28;20550;-78
2022/10/26 08:19:23;;;;;;;11.30;8.90;;;10.60;99.90;;;;;;5086193;28;20486;-78
2022/10/26 08:21:50;;;;;;;8.67;7.53;;;10.80;99.90;;;;;;5093778;28;20527;-79
2022/10/26 08:24:18;;;;;;;7.97;7.30;;;10.80;99.90;;;;;;5101924;28;20451;-78
2022/10/26 08:26:46;;;;;;;8.13;7.40;;;10.80;99.90;;;;;;5092946;28;20926;-79
2022/10/26 08:29:13;;;;;;;10.63;7.90;;;11.00;99.90;;;;;;5099750;28;20446;-78
2022/10/26 08:31:40;;;;;;;7.60;6.90;;;11.10;99.90;;;;;;5092016;28;20512;-78
2022/10/26 08:34:07;;;;;;;11.30;7.60;;;11.20;99.90;;;;;;5082473;28;20568;-78
2022/10/26 08:36:34;;;;;;;9.27;8.47;;;11.30;99.90;;;;;;5099137;28;20478;-78
2022/10/26 08:39:01;;;;;;;7.30;6.80;;;11.30;99.90;;;;;;5081567;28;20494;-78
2022/10/26 08:41:35;;;;;;;6.30;5.80;;;11.50;99.90;;;;;;5088581;28;20473;-79
2022/10/26 08:44:11;;;;;;;6.60;6.20;;;11.80;99.90;;;;;;5083080;28;20441;-79
2022/10/26 08:46:42;;;;;;;6.33;5.80;;;11.80;99.90;;;;;;5087443;28;20464;-78
2022/10/26 08:49:19;;;;;;;5.07;4.77;;;11.80;99.90;;;;;;5080913;28;20456;-79
2022/10/26 08:51:47;;;;;;;4.77;4.37;;;11.80;99.90;;;;;;5082285;28;21148;-79
2022/10/26 08:54:19;;;;;;;9.27;7.53;;;12.10;99.90;;;;;;5086261;28;20578;-79
2022/10/26 08:56:51;;;;;;;7.33;4.67;;;12.30;99.90;;;;;;5090416;28;20939;-79
2022/10/26 08:59:25;;;;;;;9.53;6.30;;;12.70;99.90;;;;;;5089816;28;20491;-79
2022/10/26 09:01:52;;;;;;;9.80;7.63;;;12.80;99.90;;;;;;5091629;28;20455;-80
2022/10/26 09:04:26;;;;;;;10.60;7.53;;;12.90;99.90;;;;;;5084284;28;20505;-79
2022/10/26 09:07:02;;;;;;;4.67;4.27;;;13.10;99.90;;;;;;5085907;28;20452;-79
2022/10/26 09:09:41;;;;;;;3.63;3.33;;;13.40;99.90;;;;;;5088944;28;20449;-78
2022/10/26 09:12:14;;;;;;;6.80;6.13;;;13.40;99.90;;;;;;5087717;28;20543;-79
2022/10/26 09:14:52;;;;;;;3.20;2.90;;;13.40;99.90;;;;;;5088959;28;20514;-79
2022/10/26 09:17:30;;;;;;;5.17;3.73;;;13.40;99.90;;;;;;5090838;28;21001;-78
2022/10/26 09:20:09;;;;;;;3.93;3.63;;;13.30;99.90;;;;;;5085797;28;20492;-78
2022/10/26 09:22:47;;;;;;;7.33;3.77;;;13.60;99.90;;;;;;5087357;28;20494;-79
2022/10/26 09:25:19;;;;;;;4.13;3.83;;;13.90;99.90;;;;;;5091091;28;20457;-78
2022/10/26 09:27:50;;;;;;;22.83;15.23;;;13.90;99.90;;;;;;5088416;28;20608;-78
2022/10/26 09:30:19;;;;;;;5.87;4.23;;;13.90;99.90;;;;;;5086886;28;20550;-78
2022/10/26 09:32:49;;;;;;;14.33;10.50;;;13.70;99.90;;;;;;5086570;28;20449;-78
2022/10/26 09:35:20;;;;;;;35.20;17.70;;;13.60;99.90;;;;;;5087593;28;20513;-79
2022/10/26 09:37:52;;;;;;;6.73;5.43;;;13.70;99.90;;;;;;5088732;28;21135;-78
2022/10/26 09:40:26;;;;;;;4.93;4.50;;;13.80;99.90;;;;;;5089299;28;20447;-79
2022/10/26 09:42:59;;;;;;;3.83;2.93;;;13.90;99.90;;;;;;5085022;28;20530;-78
2022/10/26 09:45:31;;;;;;;3.23;3.03;;;14.10;99.90;;;;;;5086058;28;20493;-78
2022/10/26 09:48:05;;;;;;;2.93;2.50;;;14.00;99.90;;;;;;5086913;28;20545;-78
2022/10/26 09:50:35;;;;;;;3.40;3.10;;;14.00;99.90;;;;;;5084955;28;20954;-78
2022/10/26 09:53:02;;;;;;;3.80;3.60;;;14.10;99.90;;;;;;5084837;28;20517;-78
2022/10/26 09:55:31;;;;;;;3.97;2.77;;;14.20;99.90;;;;;;5087404;28;20539;-78
2022/10/26 09:58:01;;;;;;;5.07;2.83;;;14.40;99.90;;;;;;5084448;28;20467;-78
2022/10/26 10:00:29;;;;;;;2.07;1.97;;;14.50;99.90;;;;;;5090176;28;20472;-78
2022/10/26 10:02:57;;;;;;;2.67;2.33;;;14.40;99.90;;;;;;5090972;27;20455;-82
2022/10/26 10:05:30;;;;;;;4.50;3.67;;;14.50;99.90;;;;;;5090997;27;20903;-82
2022/10/26 10:08:19;;;;;;;2.03;1.90;;;14.60;99.90;;;;;;5093336;28;20446;-81
2022/10/26 10:10:58;;;;;;;2.20;2.00;;;14.70;99.90;;;;;;5088961;28;20582;-82
2022/10/26 10:13:29;;;;;;;2.80;1.90;;;14.50;99.90;;;;;;5091865;28;21194;-82
2022/10/26 10:16:06;;;;;;;4.03;2.47;;;14.60;99.90;;;;;;5087595;28;20545;-81
2022/10/26 10:18:34;;;;;;;3.33;2.40;;;14.70;99.90;;;;;;5094919;28;21444;-82
2022/10/26 10:21:01;;;;;;;3.70;2.40;;;14.70;99.90;;;;;;5089923;28;20471;-81
2022/10/26 10:23:31;;;;;;;5.47;3.40;;;14.60;99.90;;;;;;5092131;28;20531;-81
2022/10/26 10:26:01;;;;;;;3.97;3.40;;;14.40;99.90;;;;;;5085540;28;20454;-81
2022/10/26 10:28:30;;;;;;;3.23;3.03;;;14.30;99.90;;;;;;5095416;28;20850;-81
2022/10/26 10:30:59;;;;;;;2.73;2.53;;;14.30;99.90;;;;;;5088497;28;21049;-81
2022/10/26 10:33:37;;;;;;;3.10;2.90;;;14.50;99.90;;;;;;5092045;28;20824;-81
2022/10/26 10:36:09;;;;;;;3.13;2.93;;;14.40;99.90;;;;;;5088108;28;20464;-78
2022/10/26 10:38:44;;;;;;;4.00;3.70;;;14.40;99.90;;;;;;5090029;28;20488;-78
2022/10/26 10:41:25;;;;;;;5.00;3.40;;;14.50;99.90;;;;;;5097111;28;20482;-78
2022/10/26 10:43:56;;;;;;;4.60;4.17;;;14.20;99.90;;;;;;5095498;28;20899;-78
2022/10/26 10:46:26;;;;;;;3.70;3.40;;;14.00;99.90;;;;;;5089208;28;20468;-78
2022/10/26 10:49:02;;;;;;;4.37;4.00;;;14.00;99.90;;;;;;5090970;28;20527;-78
2022/10/26 10:51:35;;;;;;;5.97;4.07;;;13.90;99.90;;;;;;5089314;28;20440;-78
2022/10/26 10:54:03;;;;;;;3.63;3.30;;;13.90;99.90;;;;;;5086930;28;20896;-78
2022/10/26 10:56:34;;;;;;;4.33;3.67;;;13.80;99.90;;;;;;5087480;28;20458;-78
2022/10/26 10:59:32;;;;;;;4.33;3.70;;;13.80;99.90;;;;;;5081998;28;20456;-78
2022/10/26 11:02:25;;;;;;;3.20;3.00;;;13.80;99.90;;;;;;5065948;28;20461;-78
2022/10/26 11:05:04;;;;;;;4.20;3.40;;;14.00;99.90;;;;;;5085079;28;20499;-78
2022/10/26 11:07:36;;;;;;;4.10;3.70;;;14.30;99.90;;;;;;5085431;28;20471;-77
2022/10/26 11:10:04;;;;;;;3.90;3.60;;;14.50;99.90;;;;;;5096377;28;20580;-76
2022/10/26 11:12:36;;;;;;;3.50;3.20;;;14.60;99.90;;;;;;5092392;27;20560;-76
2022/10/26 11:15:12;;;;;;;3.37;3.17;;;14.70;99.90;;;;;;5088161;28;20871;-76
2022/10/26 11:17:56;;;;;;;3.20;3.00;;;14.70;99.90;;;;;;5092526;28;20462;-76
2022/10/26 11:20:26;;;;;;;4.50;3.43;;;14.90;99.90;;;;;;5090478;28;20504;-76
2022/10/26 11:23:03;;;;;;;4.80;4.33;;;14.70;99.90;;;;;;5095037;28;20541;-76
2022/10/26 11:25:35;;;;;;;3.13;2.93;;;14.60;99.90;;;;;;5084780;28;20480;-76
2022/10/26 11:28:11;;;;;;;3.17;2.97;;;14.80;99.90;;;;;;5090155;28;21076;-77
2022/10/26 11:30:45;;;;;;;2.53;2.33;;;14.80;99.90;;;;;;5092713;28;20521;-76
2022/10/26 11:33:17;;;;;;;3.03;2.70;;;14.90;99.90;;;;;;5083461;28;20486;-76
2022/10/26 11:35:53;;;;;;;2.60;2.40;;;14.70;99.90;;;;;;5088174;27;20469;-76
2022/10/26 11:38:25;;;;;;;2.87;2.67;;;14.40;99.90;;;;;;5086982;27;20454;-76
2022/10/26 11:40:57;;;;;;;2.60;2.40;;;14.30;99.90;;;;;;5091995;27;20493;-76
2022/10/26 11:43:31;;;;;;;3.80;2.50;;;14.30;99.90;;;;;;5089493;27;20458;-76
2022/10/26 11:46:05;;;;;;;3.00;2.80;;;14.50;99.90;;;;;;5094014;28;20529;-76
2022/10/26 11:48:41;;;;;;;2.90;2.20;;;14.50;99.90;;;;;;5089444;28;20975;-76
2022/10/26 11:51:14;;;;;;;2.20;1.97;;;14.50;99.90;;;;;;5087604;28;20491;-76
2022/10/26 11:53:44;;;;;;;2.80;2.60;;;14.40;99.90;;;;;;5097509;28;20511;-76
2022/10/26 11:56:14;;;;;;;7.63;4.13;;;14.70;99.90;;;;;;5089265;28;20492;-76
2022/10/26 11:58:42;;;;;;;3.43;2.30;;;14.90;99.90;;;;;;5089102;28;20551;-76
2022/10/26 12:01:14;;;;;;;2.10;1.90;;;15.00;99.90;;;;;;5086485;28;20468;-76
2022/10/26 12:03:46;;;;;;;3.27;2.33;;;15.10;99.90;;;;;;5086652;28;20924;-75
2022/10/26 12:06:17;;;;;;;3.63;1.67;;;15.30;99.90;;;;;;5086055;28;20988;-76
2022/10/26 12:08:50;;;;;;;2.33;2.13;;;15.30;99.90;;;;;;5098617;28;20562;-76
2022/10/26 12:11:34;;;;;;;2.03;1.93;;;15.20;99.90;;;;;;5088218;28;20447;-76
2022/10/26 12:14:07;;;;;;;2.27;1.63;;;15.40;99.90;;;;;;5092281;28;20543;-76
2022/10/26 12:16:46;;;;;;;2.33;2.13;;;15.40;99.90;;;;;;5097359;28;20526;-76
2022/10/26 12:19:19;;;;;;;3.27;2.30;;;15.40;99.90;;;;;;5092161;28;21089;-76
2022/10/26 12:21:47;;;;;;;2.50;2.13;;;15.40;99.90;;;;;;5089010;28;20456;-76
2022/10/26 12:24:28;;;;;;;2.07;1.70;;;15.60;99.90;;;;;;5095772;28;20466;-76
2022/10/26 12:26:57;;;;;;;3.10;2.07;;;15.70;99.90;;;;;;5089627;28;20520;-76
2022/10/26 12:29:36;;;;;;;2.10;1.97;;;15.90;99.90;;;;;;5100303;28;20864;-76
2022/10/26 12:32:27;;;;;;;2.00;1.90;;;16.10;99.90;;;;;;5095723;28;20914;-76
2022/10/26 12:35:00;;;;;;;2.80;2.60;;;16.10;99.90;;;;;;5093523;28;21265;-76
2022/10/26 12:37:36;;;;;;;3.23;2.20;;;16.40;99.90;;;;;;5097026;28;20457;-76
2022/10/26 12:40:49;;;;;;;1.80;1.70;;;16.60;99.90;;;;;;5090949;27;20561;-76
2022/10/26 12:43:41;;;;;;;1.63;1.53;;;16.30;99.90;;;;;;5061261;27;20551;-76
2022/10/26 12:46:41;;;;;;;1.93;1.83;;;16.50;99.90;;;;;;5084284;28;20520;-76
2022/10/26 12:49:38;;;;;;;1.70;1.60;;;16.50;99.90;;;;;;5099379;28;20934;-76
2022/10/26 12:52:22;;;;;;;2.33;1.77;;;16.40;99.90;;;;;;5074461;27;20462;-76
2022/10/26 12:55:08;;;;;;;5.70;2.00;;;16.50;99.90;;;;;;5099685;27;20553;-76
2022/10/26 12:57:47;;;;;;;2.97;1.50;;;16.60;99.90;;;;;;5099021;28;20485;-76
2022/10/26 13:00:16;;;;;;;4.00;2.10;;;16.60;99.90;;;;;;5097538;28;20518;-76
2022/10/26 13:02:58;;;;;;;2.60;2.40;;;16.60;99.90;;;;;;5090382;27;20555;-76
2022/10/26 13:05:52;;;;;;;2.30;2.00;;;16.50;99.90;;;;;;5102552;28;20525;-76
2022/10/26 13:08:20;;;;;;;1.77;1.67;;;16.40;99.90;;;;;;5100502;28;20443;-76
2022/10/26 13:11:02;;;;;;;2.80;1.33;;;16.30;99.90;;;;;;5090976;27;20542;-76